sensor_id;sensor_type;location;lat;lon;timestamp;pressure;altitude;pressure_sealevel;temperature;humidity
71239;BME280;61342;51.442;7.370;2022-07-21T00:00:29;100261.97;;;23.34;77.85
71239;BME280;61342;51.442;7.370;2022-07-21T00:01:29;100263.97;;;23.31;77.33
71239;BME280;61342;51.442;7.370;2022-07-21T00:02:30;100258.72;;;23.30;77.75
71239;BME280;61342;51.442;7.370;2022-07-21T00:03:30;100260.56;;;23.25;77.31
71239;BME280;61342;51.442;7.370;2022-07-21T00:04:30;100264.59;;;23.21;77.83
71239;BME280;61342;51.442;7.370;2022-07-21T00:05:31;100259.94;;;23.18;77.56
71239;BME280;61342;51.442;7.370;2022-07-21T00:06:31;100264.88;;;23.15;77.45
71239;BME280;61342;51.442;7.370;2022-07-21T00:07:32;100262.75;;;23.16;78.12
71239;BME280;61342;51.442;7.370;2022-07-21T00:08:33;100255.31;;;23.15;77.56
71239;BME280;61342;51.442;7.370;2022-07-21T00:09:34;100264.28;;;23.17;77.67
71239;BME280;61342;51.442;7.370;2022-07-21T00:10:35;100255.63;;;23.19;78.16
71239;BME280;61342;51.442;7.370;2022-07-21T00:11:36;100266.91;;;23.22;78.28
71239;BME280;61342;51.442;7.370;2022-07-21T00:12:37;100266.44;;;23.25;78.02
71239;BME280;61342;51.442;7.370;2022-07-21T00:13:37;100265.84;;;23.27;77.95
71239;BME280;61342;51.442;7.370;2022-07-21T00:14:38;100265.84;;;23.27;77.95
71239;BME280;61342;51.442;7.370;2022-07-21T00:15:38;100275.41;;;23.27;78.23
71239;BME280;61342;51.442;7.370;2022-07-21T00:16:40;100261.47;;;23.28;77.75
71239;BME280;61342;51.442;7.370;2022-07-21T00:17:41;100267.22;;;23.26;77.62
71239;BME280;61342;51.442;7.370;2022-07-21T00:18:42;100267.22;;;23.26;78.07
71239;BME280;61342;51.442;7.370;2022-07-21T00:19:42;100269.84;;;23.22;77.97
71239;BME280;61342;51.442;7.370;2022-07-21T00:20:43;100263.81;;;23.20;77.92
71239;BME280;61342;51.442;7.370;2022-07-21T00:21:43;100268.75;;;23.18;77.82
71239;BME280;61342;51.442;7.370;2022-07-21T00:22:44;100269.84;;;23.13;78.30
71239;BME280;61342;51.442;7.370;2022-07-21T00:23:44;100271.06;;;23.10;77.84
71239;BME280;61342;51.442;7.370;2022-07-21T00:24:44;100258.88;;;23.04;77.96
71239;BME280;61342;51.442;7.370;2022-07-21T00:25:45;100255.00;;;23.01;78.05
71239;BME280;61342;51.442;7.370;2022-07-21T00:26:45;100245.09;;;22.97;78.23
71239;BME280;61342;51.442;7.370;2022-07-21T00:27:46;100245.09;;;22.97;77.73
71239;BME280;61342;51.442;7.370;2022-07-21T00:28:47;100249.59;;;22.98;77.75
71239;BME280;61342;51.442;7.370;2022-07-21T00:29:48;100237.88;;;22.98;78.10
71239;BME280;61342;51.442;7.370;2022-07-21T00:30:48;100249.59;;;22.98;77.75
71239;BME280;61342;51.442;7.370;2022-07-21T00:31:48;100249.91;;;23.02;78.20
71239;BME280;61342;51.442;7.370;2022-07-21T00:32:49;100245.72;;;23.05;77.85
71239;BME280;61342;51.442;7.370;2022-07-21T00:33:49;100244.22;;;23.04;77.59
71239;BME280;61342;51.442;7.370;2022-07-21T00:34:51;100237.09;;;23.07;77.23
71239;BME280;61342;51.442;7.370;2022-07-21T00:35:51;100242.81;;;23.05;77.32
71239;BME280;61342;51.442;7.370;2022-07-21T00:36:51;100234.78;;;23.05;77.44
71239;BME280;61342;51.442;7.370;2022-07-21T00:37:52;100234.00;;;23.05;76.76
71239;BME280;61342;51.442;7.370;2022-07-21T00:38:52;100237.41;;;23.01;76.41
71239;BME280;61342;51.442;7.370;2022-07-21T00:39:54;100235.72;;;22.98;76.25
71239;BME280;61342;51.442;7.370;2022-07-21T00:40:54;100235.53;;;22.96;76.10
71239;BME280;61342;51.442;7.370;2022-07-21T00:41:55;100226.09;;;22.88;76.39
71239;BME280;61342;51.442;7.370;2022-07-21T00:42:55;100219.31;;;22.86;76.28
71239;BME280;61342;51.442;7.370;2022-07-21T00:43:56;100226.25;;;22.81;76.29
71239;BME280;61342;51.442;7.370;2022-07-21T00:44:57;100224.56;;;22.78;76.24
71239;BME280;61342;51.442;7.370;2022-07-21T00:45:58;100234.41;;;22.73;76.70
71239;BME280;61342;51.442;7.370;2022-07-21T00:46:58;100232.59;;;22.68;76.83
71239;BME280;61342;51.442;7.370;2022-07-21T00:47:58;100238.28;;;22.66;77.03
71239;BME280;61342;51.442;7.370;2022-07-21T00:48:59;100240.44;;;22.65;76.97
71239;BME280;61342;51.442;7.370;2022-07-21T00:50:02;100234.41;;;22.63;77.09
71239;BME280;61342;51.442;7.370;2022-07-21T00:51:03;100235.97;;;22.64;77.05
71239;BME280;61342;51.442;7.370;2022-07-21T00:52:03;100241.38;;;22.68;77.41
71239;BME280;61342;51.442;7.370;2022-07-21T00:53:04;100247.38;;;22.70;77.33
71239;BME280;61342;51.442;7.370;2022-07-21T00:54:05;100246.94;;;22.73;77.68
71239;BME280;61342;51.442;7.370;2022-07-21T00:55:06;100252.31;;;22.77;77.35
71239;BME280;61342;51.442;7.370;2022-07-21T00:56:09;100249.56;;;22.79;77.04
71239;BME280;61342;51.442;7.370;2022-07-21T00:57:10;100251.25;;;22.82;76.84
71239;BME280;61342;51.442;7.370;2022-07-21T00:58:11;100254.19;;;22.82;77.39
71239;BME280;61342;51.442;7.370;2022-07-21T00:59:12;100261.44;;;22.81;77.02
71239;BME280;61342;51.442;7.370;2022-07-21T01:00:21;100251.88;;;22.80;77.09
71239;BME280;61342;51.442;7.370;2022-07-21T01:01:23;100266.97;;;22.77;76.69
71239;BME280;61342;51.442;7.370;2022-07-21T01:02:23;100268.66;;;22.70;77.01
71239;BME280;61342;51.442;7.370;2022-07-21T01:03:26;100260.50;;;22.69;77.23
71239;BME280;61342;51.442;7.370;2022-07-21T01:04:27;100263.09;;;22.65;77.40
71239;BME280;61342;51.442;7.370;2022-07-21T01:05:27;100259.72;;;22.59;77.10
71239;BME280;61342;51.442;7.370;2022-07-21T01:06:27;100266.78;;;22.56;77.38
71239;BME280;61342;51.442;7.370;2022-07-21T01:07:28;100260.03;;;22.54;77.69
71239;BME280;61342;51.442;7.370;2022-07-21T01:08:28;100265.72;;;22.52;78.18
71239;BME280;61342;51.442;7.370;2022-07-21T01:09:29;100268.50;;;22.50;78.11
71239;BME280;61342;51.442;7.370;2022-07-21T01:10:30;100258.16;;;22.49;78.30
71239;BME280;61342;51.442;7.370;2022-07-21T01:11:31;100258.47;;;22.53;78.54
71239;BME280;61342;51.442;7.370;2022-07-21T01:12:31;100266.78;;;22.56;78.64
71239;BME280;61342;51.442;7.370;2022-07-21T01:13:32;100265.59;;;22.59;78.44
71239;BME280;61342;51.442;7.370;2022-07-21T01:14:33;100263.59;;;22.62;78.19
71239;BME280;61342;51.442;7.370;2022-07-21T01:15:33;100258.66;;;22.64;78.57
71239;BME280;61342;51.442;7.370;2022-07-21T01:16:34;100260.97;;;22.65;78.23
71239;BME280;61342;51.442;7.370;2022-07-21T01:17:34;100261.72;;;22.66;78.36
71239;BME280;61342;51.442;7.370;2022-07-21T01:18:35;100264.03;;;22.67;78.68
71239;BME280;61342;51.442;7.370;2022-07-21T01:19:36;100261.91;;;22.68;77.99
71239;BME280;61342;51.442;7.370;2022-07-21T01:20:38;100266.03;;;22.65;78.14
71239;BME280;61342;51.442;7.370;2022-07-21T01:21:43;100272.69;;;22.65;78.56
71239;BME280;61342;51.442;7.370;2022-07-21T01:22:46;100273.13;;;22.62;78.09
71239;BME280;61342;51.442;7.370;2022-07-21T01:23:46;100266.97;;;22.58;78.21
71239;BME280;61342;51.442;7.370;2022-07-21T01:24:47;100268.19;;;22.55;78.93
71239;BME280;61342;51.442;7.370;2022-07-21T01:25:51;100271.56;;;22.52;78.35
71239;BME280;61342;51.442;7.370;2022-07-21T01:26:53;100269.09;;;22.48;78.19
71239;BME280;61342;51.442;7.370;2022-07-21T01:27:53;100256.44;;;22.46;78.73
71239;BME280;61342;51.442;7.370;2022-07-21T01:28:53;100259.81;;;22.42;78.91
71239;BME280;61342;51.442;7.370;2022-07-21T01:29:55;100258.28;;;22.41;79.01
71239;BME280;61342;51.442;7.370;2022-07-21T01:30:55;100249.47;;;22.41;79.12
71239;BME280;61342;51.442;7.370;2022-07-21T01:31:56;100253.66;;;22.38;78.95
71239;BME280;61342;51.442;7.370;2022-07-21T01:32:56;100256.28;;;22.44;79.00
71239;BME280;61342;51.442;7.370;2022-07-21T01:33:56;100249.81;;;22.45;79.48
71239;BME280;61342;51.442;7.370;2022-07-21T01:34:57;100266.31;;;22.50;78.67
71239;BME280;61342;51.442;7.370;2022-07-21T01:35:57;100263.41;;;22.50;78.56
71239;BME280;61342;51.442;7.370;2022-07-21T01:36:58;100268.97;;;22.56;78.35
71239;BME280;61342;51.442;7.370;2022-07-21T01:37:59;100269.72;;;22.56;78.68
71239;BME280;61342;51.442;7.370;2022-07-21T01:39:00;100268.97;;;22.56;78.90
71239;BME280;61342;51.442;7.370;2022-07-21T01:40:19;100264.31;;;22.53;78.95
71239;BME280;61342;51.442;7.370;2022-07-21T01:41:38;100266.63;;;22.54;78.34
71239;BME280;61342;51.442;7.370;2022-07-21T01:42:38;100268.63;;;22.52;78.76
71239;BME280;61342;51.442;7.370;2022-07-21T01:43:39;100264.00;;;22.49;78.33
71239;BME280;61342;51.442;7.370;2022-07-21T01:44:39;100263.69;;;22.45;78.81
71239;BME280;61342;51.442;7.370;2022-07-21T01:45:40;100274.47;;;22.42;78.76
71239;BME280;61342;51.442;7.370;2022-07-21T01:46:43;100273.97;;;22.36;78.89
71239;BME280;61342;51.442;7.370;2022-07-21T01:47:44;100282.31;;;22.30;78.77
71239;BME280;61342;51.442;7.370;2022-07-21T01:48:45;100295.41;;;22.29;78.64
71239;BME280;61342;51.442;7.370;2022-07-21T01:49:45;100295.25;;;22.27;78.97
71239;BME280;61342;51.442;7.370;2022-07-21T01:50:45;100298.94;;;22.28;78.75
71239;BME280;61342;51.442;7.370;2022-07-21T01:51:46;100289.38;;;22.27;78.80
71239;BME280;61342;51.442;7.370;2022-07-21T01:52:47;100291.09;;;22.30;79.25
71239;BME280;61342;51.442;7.370;2022-07-21T01:53:47;100292.03;;;22.33;78.96
71239;BME280;61342;51.442;7.370;2022-07-21T01:54:48;100282.63;;;22.34;78.71
71239;BME280;61342;51.442;7.370;2022-07-21T01:55:48;100282.78;;;22.36;79.20
71239;BME280;61342;51.442;7.370;2022-07-21T01:56:49;100280.63;;;22.37;78.49
71239;BME280;61342;51.442;7.370;2022-07-21T01:57:50;100287.25;;;22.37;78.94
71239;BME280;61342;51.442;7.370;2022-07-21T01:58:52;100285.69;;;22.36;78.38
71239;BME280;61342;51.442;7.370;2022-07-21T01:59:53;100278.31;;;22.35;78.13
71239;BME280;61342;51.442;7.370;2022-07-21T02:00:53;100279.53;;;22.32;78.84
71239;BME280;61342;51.442;7.370;2022-07-21T02:01:53;100272.72;;;22.30;78.33
71239;BME280;61342;51.442;7.370;2022-07-21T02:02:54;100277.69;;;22.27;78.95
71239;BME280;61342;51.442;7.370;2022-07-21T02:03:56;100276.19;;;22.19;78.89
71239;BME280;61342;51.442;7.370;2022-07-21T02:04:57;100284.22;;;22.18;78.52
71239;BME280;61342;51.442;7.370;2022-07-21T02:06:02;100285.28;;;22.13;78.73
71239;BME280;61342;51.442;7.370;2022-07-21T02:07:03;100284.19;;;22.09;79.02
71239;BME280;61342;51.442;7.370;2022-07-21T02:08:03;100277.22;;;22.04;78.93
71239;BME280;61342;51.442;7.370;2022-07-21T02:09:03;100277.50;;;21.99;78.50
71239;BME280;61342;51.442;7.370;2022-07-21T02:10:04;100267.63;;;21.95;78.70
71239;BME280;61342;51.442;7.370;2022-07-21T02:11:05;100270.56;;;21.95;78.77
71239;BME280;61342;51.442;7.370;2022-07-21T02:12:06;100267.63;;;21.95;79.20
71239;BME280;61342;51.442;7.370;2022-07-21T02:13:07;100262.97;;;21.92;79.54
71239;BME280;61342;51.442;7.370;2022-07-21T02:14:07;100265.91;;;21.92;79.15
71239;BME280;61342;51.442;7.370;2022-07-21T02:15:08;100270.72;;;21.97;78.75
71239;BME280;61342;51.442;7.370;2022-07-21T02:16:09;100270.88;;;21.99;79.33
71239;BME280;61342;51.442;7.370;2022-07-21T02:17:10;100261.94;;;21.97;79.20
71239;BME280;61342;51.442;7.370;2022-07-21T02:18:10;100266.56;;;22.00;79.23
71239;BME280;61342;51.442;7.370;2022-07-21T02:19:11;100274.56;;;21.99;79.14
71239;BME280;61342;51.442;7.370;2022-07-21T02:20:11;100271.03;;;22.01;78.72
71239;BME280;61342;51.442;7.370;2022-07-21T02:21:12;100274.41;;;21.97;78.63
71239;BME280;61342;51.442;7.370;2022-07-21T02:22:12;100278.56;;;21.94;78.50
71239;BME280;61342;51.442;7.370;2022-07-21T02:23:16;100283.31;;;21.90;78.54
71239;BME280;61342;51.442;7.370;2022-07-21T02:24:17;100291.91;;;21.88;78.86
71239;BME280;61342;51.442;7.370;2022-07-21T02:25:17;100293.75;;;21.83;78.19
71239;BME280;61342;51.442;7.370;2022-07-21T02:26:18;100298.34;;;21.77;78.27
71239;BME280;61342;51.442;7.370;2022-07-21T02:27:18;100288.00;;;21.76;78.32
71239;BME280;61342;51.442;7.370;2022-07-21T02:28:19;100283.97;;;21.71;78.74
71239;BME280;61342;51.442;7.370;2022-07-21T02:29:20;100295.97;;;21.66;78.76
71239;BME280;61342;51.442;7.370;2022-07-21T02:30:20;100297.00;;;21.61;78.62
71239;BME280;61342;51.442;7.370;2022-07-21T02:31:21;100284.19;;;21.56;78.84
71239;BME280;61342;51.442;7.370;2022-07-21T02:32:21;100289.25;;;21.56;79.05
71239;BME280;61342;51.442;7.370;2022-07-21T02:33:21;100290.81;;;21.57;78.83
71239;BME280;61342;51.442;7.370;2022-07-21T02:34:22;100289.44;;;21.58;79.04
71239;BME280;61342;51.442;7.370;2022-07-21T02:35:22;100293.91;;;21.59;79.46
71239;BME280;61342;51.442;7.370;2022-07-21T02:36:22;100288.22;;;21.61;79.44
71239;BME280;61342;51.442;7.370;2022-07-21T02:37:23;100288.38;;;21.63;78.98
71239;BME280;61342;51.442;7.370;2022-07-21T02:38:23;100290.13;;;21.66;79.49
71239;BME280;61342;51.442;7.370;2022-07-21T02:39:24;100283.47;;;21.65;78.83
71239;BME280;61342;51.442;7.370;2022-07-21T02:40:26;100283.81;;;21.69;79.23
71239;BME280;61342;51.442;7.370;2022-07-21T02:41:26;100288.88;;;21.69;79.20
71239;BME280;61342;51.442;7.370;2022-07-21T02:42:27;100284.41;;;21.68;79.18
71239;BME280;61342;51.442;7.370;2022-07-21T02:43:27;100279.78;;;21.65;79.34
71239;BME280;61342;51.442;7.370;2022-07-21T02:44:27;100276.66;;;21.63;79.00
71239;BME280;61342;51.442;7.370;2022-07-21T02:45:29;100286.66;;;21.60;79.03
71239;BME280;61342;51.442;7.370;2022-07-21T02:46:30;100276.78;;;21.55;78.99
71239;BME280;61342;51.442;7.370;2022-07-21T02:47:30;100285.41;;;21.53;79.36
71239;BME280;61342;51.442;7.370;2022-07-21T02:48:30;100282.13;;;21.49;79.24
71239;BME280;61342;51.442;7.370;2022-07-21T02:49:31;100281.63;;;21.43;79.36
71239;BME280;61342;51.442;7.370;2022-07-21T02:50:34;100282.03;;;21.40;79.50
71239;BME280;61342;51.442;7.370;2022-07-21T02:51:34;100275.25;;;21.38;79.94
71239;BME280;61342;51.442;7.370;2022-07-21T02:52:35;100278.59;;;21.34;80.11
71239;BME280;61342;51.442;7.370;2022-07-21T02:53:35;100278.00;;;21.36;80.07
71239;BME280;61342;51.442;7.370;2022-07-21T02:54:36;100270.75;;;21.37;80.34
71239;BME280;61342;51.442;7.370;2022-07-21T02:55:36;100267.41;;;21.40;80.50
71239;BME280;61342;51.442;7.370;2022-07-21T02:56:37;100272.03;;;21.43;80.12
71239;BME280;61342;51.442;7.370;2022-07-21T02:57:38;100267.75;;;21.44;79.91
71239;BME280;61342;51.442;7.370;2022-07-21T02:58:39;100269.63;;;21.49;80.30
71239;BME280;61342;51.442;7.370;2022-07-21T02:59:39;100272.13;;;21.52;80.25
71239;BME280;61342;51.442;7.370;2022-07-21T03:00:41;100267.84;;;21.53;80.28
71239;BME280;61342;51.442;7.370;2022-07-21T03:01:42;100269.38;;;21.54;80.46
71239;BME280;61342;51.442;7.370;2022-07-21T03:02:42;100274.47;;;21.54;80.18
71239;BME280;61342;51.442;7.370;2022-07-21T03:03:43;100274.47;;;21.54;79.63
71239;BME280;61342;51.442;7.370;2022-07-21T03:04:43;100270.00;;;21.53;80.32
71239;BME280;61342;51.442;7.370;2022-07-21T03:05:43;100270.63;;;21.51;80.09
71239;BME280;61342;51.442;7.370;2022-07-21T03:06:44;100266.72;;;21.49;79.55
71239;BME280;61342;51.442;7.370;2022-07-21T03:07:44;100274.97;;;21.43;79.63
71239;BME280;61342;51.442;7.370;2022-07-21T03:08:44;100265.44;;;21.42;79.83
71239;BME280;61342;51.442;7.370;2022-07-21T03:09:45;100264.34;;;21.38;79.96
71239;BME280;61342;51.442;7.370;2022-07-21T03:10:45;100263.81;;;21.32;80.50
71239;BME280;61342;51.442;7.370;2022-07-21T03:11:46;100263.47;;;21.28;80.08
71239;BME280;61342;51.442;7.370;2022-07-21T03:12:47;100261.91;;;21.27;80.39
71239;BME280;61342;51.442;7.370;2022-07-21T03:13:47;100260.22;;;21.24;80.23
71239;BME280;61342;51.442;7.370;2022-07-21T03:14:48;100258.84;;;21.25;80.68
71239;BME280;61342;51.442;7.370;2022-07-21T03:15:48;100262.53;;;21.26;80.86
71239;BME280;61342;51.442;7.370;2022-07-21T03:16:48;100257.63;;;21.28;81.02
71239;BME280;61342;51.442;7.370;2022-07-21T03:17:49;100251.94;;;21.30;81.07
71239;BME280;61342;51.442;7.370;2022-07-21T03:18:49;100254.28;;;21.32;81.09
71239;BME280;61342;51.442;7.370;2022-07-21T03:19:49;100255.56;;;21.38;81.37
71239;BME280;61342;51.442;7.370;2022-07-21T03:20:50;100255.72;;;21.40;80.56
71239;BME280;61342;51.442;7.370;2022-07-21T03:21:50;100258.81;;;21.42;80.96
71239;BME280;61342;51.442;7.370;2022-07-21T03:22:51;100251.56;;;21.43;80.98
71239;BME280;61342;51.442;7.370;2022-07-21T03:23:51;100252.97;;;21.42;80.73
71239;BME280;61342;51.442;7.370;2022-07-21T03:24:51;100252.97;;;21.42;80.92
71239;BME280;61342;51.442;7.370;2022-07-21T03:25:52;100257.88;;;21.40;80.68
71239;BME280;61342;51.442;7.370;2022-07-21T03:26:52;100251.84;;;21.38;80.12
71239;BME280;61342;51.442;7.370;2022-07-21T03:27:53;100259.06;;;21.37;80.69
71239;BME280;61342;51.442;7.370;2022-07-21T03:28:53;100251.00;;;21.28;80.17
71239;BME280;61342;51.442;7.370;2022-07-21T03:29:54;100245.75;;;21.26;80.73
71239;BME280;61342;51.442;7.370;2022-07-21T03:30:54;100253.00;;;21.25;80.75
71239;BME280;61342;51.442;7.370;2022-07-21T03:31:54;100260.03;;;21.22;80.36
71239;BME280;61342;51.442;7.370;2022-07-21T03:32:55;100253.06;;;21.18;80.95
71239;BME280;61342;51.442;7.370;2022-07-21T03:33:55;100244.91;;;21.16;80.89
71239;BME280;61342;51.442;7.370;2022-07-21T03:34:56;100248.44;;;21.15;80.86
71239;BME280;61342;51.442;7.370;2022-07-21T03:35:56;100245.94;;;21.11;81.22
71239;BME280;61342;51.442;7.370;2022-07-21T03:36:58;100246.91;;;21.14;80.71
71239;BME280;61342;51.442;7.370;2022-07-21T03:38:00;100248.59;;;21.17;81.45
71239;BME280;61342;51.442;7.370;2022-07-21T03:39:01;100239.81;;;21.17;81.13
71239;BME280;61342;51.442;7.370;2022-07-21T03:40:02;100246.00;;;21.21;81.19
71239;BME280;61342;51.442;7.370;2022-07-21T03:41:02;100241.91;;;21.24;81.17
71239;BME280;61342;51.442;7.370;2022-07-21T03:42:03;100242.06;;;21.26;81.16
71239;BME280;61342;51.442;7.370;2022-07-21T03:43:05;100242.81;;;21.26;81.08
71239;BME280;61342;51.442;7.370;2022-07-21T03:44:08;100228.19;;;21.26;80.50
71239;BME280;61342;51.442;7.370;2022-07-21T03:45:09;100240.06;;;21.28;80.69
71239;BME280;61342;51.442;7.370;2022-07-21T03:46:10;100233.47;;;21.28;80.83
71239;BME280;61342;51.442;7.370;2022-07-21T03:47:10;100229.25;;;21.21;81.02
71239;BME280;61342;51.442;7.370;2022-07-21T03:48:11;100232.19;;;21.21;80.80
71239;BME280;61342;51.442;7.370;2022-07-21T03:49:12;100234.78;;;21.17;80.86
71239;BME280;61342;51.442;7.370;2022-07-21T03:50:13;100228.94;;;21.17;80.95
71239;BME280;61342;51.442;7.370;2022-07-21T03:54:47;100224.38;;;20.90;80.65
71239;BME280;61342;51.442;7.370;2022-07-21T03:55:47;100232.03;;;20.85;81.15
71239;BME280;61342;51.442;7.370;2022-07-21T03:56:47;100223.53;;;20.80;81.08
71239;BME280;61342;51.442;7.370;2022-07-21T03:57:56;100226.28;;;20.78;81.59
71239;BME280;61342;51.442;7.370;2022-07-21T03:58:57;100215.34;;;20.79;81.51
71239;BME280;61342;51.442;7.370;2022-07-21T03:59:57;100217.69;;;20.80;81.97
71239;BME280;61342;51.442;7.370;2022-07-21T04:00:58;100207.28;;;20.86;81.78
71239;BME280;61342;51.442;7.370;2022-07-21T04:01:58;100205.16;;;20.87;81.87
71239;BME280;61342;51.442;7.370;2022-07-21T04:02:59;100213.81;;;20.94;81.75
71239;BME280;61342;51.442;7.370;2022-07-21T04:04:00;100206.91;;;20.99;81.77
71239;BME280;61342;51.442;7.370;2022-07-21T04:05:00;100208.03;;;21.04;82.02
71239;BME280;61342;51.442;7.370;2022-07-21T04:06:01;100197.28;;;21.06;81.96
71239;BME280;61342;51.442;7.370;2022-07-21T04:07:01;100196.50;;;21.06;81.67
71239;BME280;61342;51.442;7.370;2022-07-21T04:08:02;100196.09;;;21.09;81.51
71239;BME280;61342;51.442;7.370;2022-07-21T04:09:03;100195.16;;;21.07;81.81
71239;BME280;61342;51.442;7.370;2022-07-21T04:10:04;100188.50;;;21.06;81.57
71239;BME280;61342;51.442;7.370;2022-07-21T04:11:05;100182.66;;;21.06;81.06
71239;BME280;61342;51.442;7.370;2022-07-21T04:12:05;100179.41;;;21.02;81.40
71239;BME280;61342;51.442;7.370;2022-07-21T04:13:08;100177.69;;;20.99;81.41
71239;BME280;61342;51.442;7.370;2022-07-21T04:14:09;100184.16;;;20.98;80.99
71239;BME280;61342;51.442;7.370;2022-07-21T04:15:10;100178.72;;;20.94;81.38
71239;BME280;61342;51.442;7.370;2022-07-21T04:16:11;100181.31;;;20.90;81.92
71239;BME280;61342;51.442;7.370;2022-07-21T04:17:11;100181.56;;;20.85;81.75
71239;BME280;61342;51.442;7.370;2022-07-21T04:18:12;100187.28;;;20.83;81.99
71239;BME280;61342;51.442;7.370;2022-07-21T04:19:12;100194.47;;;20.82;82.03
71239;BME280;61342;51.442;7.370;2022-07-21T04:20:13;100202.47;;;20.82;82.01
71239;BME280;61342;51.442;7.370;2022-07-21T04:21:14;100198.00;;;20.81;82.44
71239;BME280;61342;51.442;7.370;2022-07-21T04:22:14;100212.97;;;20.85;82.68
71239;BME280;61342;51.442;7.370;2022-07-21T04:23:15;100207.13;;;20.85;82.45
71239;BME280;61342;51.442;7.370;2022-07-21T04:24:17;100207.00;;;20.92;83.13
71239;BME280;61342;51.442;7.370;2022-07-21T04:25:18;100210.44;;;20.98;82.79
71239;BME280;61342;51.442;7.370;2022-07-21T04:26:19;100209.25;;;21.01;82.72
71239;BME280;61342;51.442;7.370;2022-07-21T04:27:19;100203.56;;;21.03;82.29
71239;BME280;61342;51.442;7.370;2022-07-21T04:28:20;100200.03;;;21.04;82.75
71239;BME280;61342;51.442;7.370;2022-07-21T04:29:20;100209.75;;;21.07;82.55
71239;BME280;61342;51.442;7.370;2022-07-21T04:30:22;100203.13;;;21.06;82.69
71239;BME280;61342;51.442;7.370;2022-07-21T04:31:22;100203.31;;;21.08;82.82
71239;BME280;61342;51.442;7.370;2022-07-21T04:32:23;100208.38;;;21.08;82.82
71239;BME280;61342;51.442;7.370;2022-07-21T04:33:23;100212.69;;;21.07;82.31
71239;BME280;61342;51.442;7.370;2022-07-21T04:34:24;100211.75;;;21.04;82.52
71239;BME280;61342;51.442;7.370;2022-07-21T04:35:25;100207.25;;;21.03;82.72
71239;BME280;61342;51.442;7.370;2022-07-21T04:36:25;100205.38;;;20.98;82.74
71239;BME280;61342;51.442;7.370;2022-07-21T04:37:26;100204.00;;;20.99;82.34
71239;BME280;61342;51.442;7.370;2022-07-21T04:38:26;100212.44;;;20.95;82.31
71239;BME280;61342;51.442;7.370;2022-07-21T04:39:27;100204.34;;;20.86;82.19
71239;BME280;61342;51.442;7.370;2022-07-21T04:40:28;100214.41;;;20.93;82.29
71239;BME280;61342;51.442;7.370;2022-07-21T04:41:29;100195.75;;;20.88;82.62
71239;BME280;61342;51.442;7.370;2022-07-21T04:42:31;100202.56;;;20.91;82.47
71239;BME280;61342;51.442;7.370;2022-07-21T04:43:31;100204.69;;;20.90;82.56
71239;BME280;61342;51.442;7.370;2022-07-21T04:44:32;100206.41;;;20.93;82.47
71239;BME280;61342;51.442;7.370;2022-07-21T04:45:32;100205.03;;;20.94;82.92
71239;BME280;61342;51.442;7.370;2022-07-21T04:46:35;100204.00;;;20.99;82.78
71239;BME280;61342;51.442;7.370;2022-07-21T04:47:48;100200.03;;;21.04;83.01
71239;BME280;61342;51.442;7.370;2022-07-21T04:48:49;100207.16;;;21.11;83.25
71239;BME280;61342;51.442;7.370;2022-07-21T04:49:50;100196.25;;;21.11;82.84
71239;BME280;61342;51.442;7.370;2022-07-21T04:50:50;100205.06;;;21.21;82.87
71239;BME280;61342;51.442;7.370;2022-07-21T04:51:51;100203.09;;;21.23;82.82
71239;BME280;61342;51.442;7.370;2022-07-21T04:52:52;100209.28;;;21.27;82.49
71239;BME280;61342;51.442;7.370;2022-07-21T04:53:53;100208.84;;;21.31;82.82
71239;BME280;61342;51.442;7.370;2022-07-21T04:54:53;100206.53;;;21.29;82.38
71239;BME280;61342;51.442;7.370;2022-07-21T04:55:53;100206.53;;;21.29;82.56
71239;BME280;61342;51.442;7.370;2022-07-21T04:56:54;100204.22;;;21.28;82.10
71239;BME280;61342;51.442;7.370;2022-07-21T04:57:55;100210.66;;;21.26;82.15
71239;BME280;61342;51.442;7.370;2022-07-21T04:58:58;100216.69;;;21.28;82.47
71239;BME280;61342;51.442;7.370;2022-07-21T04:59:58;100217.91;;;21.25;82.28
71239;BME280;61342;51.442;7.370;2022-07-21T05:01:02;100217.56;;;21.21;82.15
71239;BME280;61342;51.442;7.370;2022-07-21T05:02:02;100221.84;;;21.20;82.58
71239;BME280;61342;51.442;7.370;2022-07-21T05:03:03;100226.16;;;21.19;82.79
71239;BME280;61342;51.442;7.370;2022-07-21T05:04:04;100226.75;;;21.18;82.68
71239;BME280;61342;51.442;7.370;2022-07-21T05:05:05;100225.38;;;21.19;83.09
71239;BME280;61342;51.442;7.370;2022-07-21T05:06:06;100224.78;;;21.20;82.94
71239;BME280;61342;51.442;7.370;2022-07-21T05:07:07;100226.50;;;21.23;82.67
71239;BME280;61342;51.442;7.370;2022-07-21T05:08:07;100228.19;;;21.26;82.81
71239;BME280;61342;51.442;7.370;2022-07-21T05:09:07;100234.38;;;21.30;83.25
71239;BME280;61342;51.442;7.370;2022-07-21T05:10:12;100227.16;;;21.31;82.75
71239;BME280;61342;51.442;7.370;2022-07-21T05:11:13;100234.91;;;21.36;82.58
71239;BME280;61342;51.442;7.370;2022-07-21T05:12:13;100229.03;;;21.36;82.34
71239;BME280;61342;51.442;7.370;2022-07-21T05:13:13;100226.88;;;21.37;82.33
71239;BME280;61342;51.442;7.370;2022-07-21T05:14:14;100233.69;;;21.39;82.14
71239;BME280;61342;51.442;7.370;2022-07-21T05:15:14;100227.81;;;21.39;82.00
71239;BME280;61342;51.442;7.370;2022-07-21T05:16:15;100226.31;;;21.38;82.38
71239;BME280;61342;51.442;7.370;2022-07-21T05:17:24;100227.16;;;21.31;82.34
71239;BME280;61342;51.442;7.370;2022-07-21T05:18:27;100216.69;;;21.28;82.53
71239;BME280;61342;51.442;7.370;2022-07-21T05:19:28;100213.09;;;21.20;82.19
71239;BME280;61342;51.442;7.370;2022-07-21T05:20:28;100227.28;;;21.24;82.48
71239;BME280;61342;51.442;7.370;2022-07-21T05:21:28;100220.91;;;21.18;82.42
71239;BME280;61342;51.442;7.370;2022-07-21T05:22:34;100226.16;;;21.19;82.38